Time;durP1;ratioP1;P1;durP2;ratioP2;P2;SDS_P1;SDS_P2;PMS_P1;PMS_P2;Temp;Humidity;BMP_temperature;BMP_pressure;BME280_temperature;BME280_humidity;BME280_pressure;Samples;Min_cycle;Max_cycle;Signal;HPM_P1;HPM_P2
2022/12/05 00:01:47;;;;;;;6.30;3.65;;;;;;;3.30;91.09;101790.41;10290127;28;20042;-83
2022/12/05 00:06:49;;;;;;;3.03;1.70;;;;;;;3.33;91.07;101784.53;10292044;28;20042;-83
2022/12/05 00:11:50;;;;;;;2.25;1.65;;;;;;;3.31;91.05;101781.84;10310858;28;20094;-83
2022/12/05 00:16:52;;;;;;;4.85;2.92;;;;;;;3.34;91.11;101788.91;10311733;28;20042;-82
2022/12/05 00:21:53;;;;;;;2.58;1.48;;;;;;;3.36;90.93;101793.38;10312210;28;20046;-84
2022/12/05 00:26:55;;;;;;;2.97;1.98;;;;;;;3.40;91.01;101793.59;10313434;28;20125;-84
2022/12/05 00:31:56;;;;;;;2.17;1.52;;;;;;;3.40;91.08;101791.88;10316267;28;20072;-84
2022/12/05 00:36:58;;;;;;;3.22;2.05;;;;;;;3.41;91.10;101788.50;10321317;28;20046;-82
2022/12/05 00:41:59;;;;;;;4.68;2.28;;;;;;;3.43;91.14;101786.00;10301178;28;20053;-82
2022/12/05 00:47:01;;;;;;;5.63;3.17;;;;;;;3.44;91.15;101777.41;10304868;28;20050;-83
2022/12/05 00:52:03;;;;;;;4.40;2.85;;;;;;;3.42;91.09;101779.03;10325725;28;20049;-82
2022/12/05 00:57:05;;;;;;;7.57;3.35;;;;;;;3.47;90.96;101775.03;10306088;28;20039;-82
2022/12/05 01:02:06;;;;;;;3.50;2.60;;;;;;;3.45;90.92;101774.03;10307488;28;20094;-83
2022/12/05 01:07:08;;;;;;;3.00;2.28;;;;;;;3.48;91.04;101782.00;10317062;28;20102;-82
2022/12/05 01:12:10;;;;;;;7.75;3.35;;;;;;;3.46;90.70;101770.66;10308297;28;20043;-82
2022/12/05 01:17:12;;;;;;;5.38;3.20;;;;;;;3.44;91.02;101783.50;10283121;28;20050;-83
2022/12/05 01:22:13;;;;;;;7.80;3.25;;;;;;;3.42;91.42;101776.44;10307172;28;20071;-84
2022/12/05 01:27:15;;;;;;;3.08;2.38;;;;;;;3.43;91.28;101784.28;10306314;28;20040;-82
2022/12/05 01:32:16;;;;;;;8.80;2.88;;;;;;;3.44;91.43;101786.09;10305208;28;20050;-83
2022/12/05 01:37:18;;;;;;;5.45;3.38;;;;;;;3.42;91.26;101789.38;10305275;28;20035;-83
2022/12/05 01:42:19;;;;;;;5.47;4.05;;;;;;;3.40;91.24;101791.00;10311935;28;20053;-83
2022/12/05 01:47:30;;;;;;;3.47;2.15;;;;;;;3.46;91.49;101773.25;10319040;28;20049;-82
2022/12/05 01:52:32;;;;;;;10.25;1.50;;;;;;;3.43;91.76;101775.66;10305218;28;20054;-83
2022/12/05 01:57:34;;;;;;;6.75;3.20;;;;;;;3.42;91.38;101773.84;10340608;28;20043;-83
2022/12/05 02:02:36;;;;;;;8.35;3.88;;;;;;;3.41;91.68;101774.63;10313221;28;20039;-82
2022/12/05 02:07:39;;;;;;;3.10;2.10;;;;;;;3.36;91.79;101762.31;10312980;28;20043;-82
2022/12/05 02:12:43;;;;;;;5.57;3.00;;;;;;;3.33;91.74;101759.53;10311619;28;20050;-82
2022/12/05 02:18:08;;;;;;;3.30;2.47;;;;;;;3.42;91.70;101758.31;10313329;28;20444;-83
2022/12/05 02:23:45;;;;;;;4.30;3.00;;;;;;;3.46;91.81;101752.53;10302491;28;20039;-81
2022/12/05 02:29:27;;;;;;;2.38;1.83;;;;;;;3.39;91.71;101752.94;10290147;28;20037;-83
2022/12/05 02:34:45;;;;;;;2.38;1.75;;;;;;;3.46;91.78;101749.94;10310160;28;20079;-82
2022/12/05 02:40:22;;;;;;;2.42;1.58;;;;;;;3.44;91.88;101756.69;10310410;28;20034;-82
2022/12/05 02:45:28;;;;;;;5.75;2.88;;;;;;;3.44;91.81;101742.06;10291331;28;20404;-83
2022/12/05 02:50:35;;;;;;;2.80;1.52;;;;;;;3.46;91.90;101734.41;10308968;28;20201;-82
2022/12/05 02:55:39;;;;;;;4.25;3.20;;;;;;;3.44;91.94;101741.16;10298941;28;20042;-83
2022/12/05 03:00:43;;;;;;;2.85;1.73;;;;;;;3.45;91.95;101740.38;10317525;28;20039;-84
2022/12/05 03:05:56;;;;;;;3.90;2.63;;;;;;;3.47;92.07;101759.50;10308304;28;20050;-83
2022/12/05 03:11:01;;;;;;;4.65;3.25;;;;;;;3.46;92.14;101760.28;10307928;28;20062;-82
2022/12/05 03:16:11;;;;;;;3.88;2.85;;;;;;;3.43;91.99;101757.53;10307632;28;20042;-82
2022/12/05 03:21:26;;;;;;;3.60;2.50;;;;;;;3.41;92.11;101743.56;10311098;28;20051;-82
2022/12/05 03:26:51;;;;;;;4.75;2.63;;;;;;;3.42;92.16;101746.25;10299928;28;20074;-80
2022/12/05 03:32:19;;;;;;;5.15;2.53;;;;;;;3.45;92.42;101743.88;10308068;28;20109;-81
2022/12/05 03:37:40;;;;;;;3.45;2.05;;;;;;;3.39;92.33;101748.66;10308314;28;20047;-83
2022/12/05 03:42:53;;;;;;;5.90;2.60;;;;;;;3.39;92.59;101742.59;10301819;28;20051;-82
2022/12/05 03:48:14;;;;;;;3.40;2.58;;;;;;;3.43;92.90;101741.97;10319751;28;20400;-83
2022/12/05 03:53:19;;;;;;;;;;;;;;;3.44;92.92;101741.16;10313209;28;20069;-82
2022/12/05 03:58:32;;;;;;;2.80;2.17;;;;;;;3.43;92.93;101744.56;10293187;28;19945;-83
2022/12/05 04:03:57;;;;;;;2.58;1.70;;;;;;;3.39;92.89;101745.19;10301420;28;20038;-82
2022/12/05 04:09:04;;;;;;;3.00;2.10;;;;;;;3.44;93.11;101746.34;10305266;28;20053;-83
2022/12/05 04:14:12;;;;;;;5.75;2.58;;;;;;;3.38;93.38;101746.88;10313435;28;20046;-82
2022/12/05 04:19:23;;;;;;;2.22;1.65;;;;;;;3.40;93.45;101747.84;10305002;28;20047;-82
2022/12/05 04:30:06;;;;;;;6.20;2.50;;;;;;;3.45;93.75;101750.72;10305206;28;20046;-82
2022/12/05 04:35:14;;;;;;;6.32;2.35;;;;;;;3.40;94.10;101755.63;10305868;28;20042;-83
2022/12/05 04:40:30;;;;;;;4.45;2.13;;;;;;;3.39;94.24;101759.00;10286092;28;20504;-83
2022/12/05 04:45:35;;;;;;;6.70;3.65;;;;;;;3.43;94.28;101754.94;10310293;28;20034;-82
2022/12/05 04:50:38;;;;;;;4.82;2.58;;;;;;;3.41;94.30;101751.34;10309237;28;20043;-84
2022/12/05 04:55:45;;;;;;;3.85;2.22;;;;;;;3.42;94.51;101758.31;10284149;28;20250;-82
2022/12/05 05:00:58;;;;;;;5.55;2.67;;;;;;;3.40;94.61;101752.16;10305027;28;20054;-84
2022/12/05 05:06:00;;;;;;;2.38;1.67;;;;;;;3.36;94.78;101759.72;10289535;28;20074;-83
2022/12/05 05:11:16;;;;;;;3.63;2.22;;;;;;;3.36;94.84;101751.97;10304702;28;20053;-83
2022/12/05 05:16:26;;;;;;;2.22;1.83;;;;;;;3.35;95.09;101751.88;10313086;28;20070;-84
2022/12/05 05:21:34;;;;;;;3.58;2.40;;;;;;;3.34;95.43;101745.78;10323737;28;20038;-83
2022/12/05 05:26:39;;;;;;;2.78;1.33;;;;;;;3.39;95.30;101752.94;10272362;28;20094;-85
2022/12/05 05:31:44;;;;;;;4.75;2.53;;;;;;;3.35;95.59;101747.56;10296598;28;20586;-88
2022/12/05 05:36:51;;;;;;;4.00;2.05;;;;;;;3.39;95.51;101747.75;10255854;28;20035;-89
2022/12/05 05:41:56;;;;;;;2.92;1.63;;;;;;;3.42;95.70;101742.78;10255477;28;20031;-88
2022/12/05 05:46:59;;;;;;;2.55;1.52;;;;;;;3.42;96.00;101740.19;10286288;28;20751;-86
2022/12/05 05:52:00;;;;;;;1.00;0.90;;;;;;;3.48;95.97;101748.31;10294812;28;20499;-87
2022/12/05 05:57:02;;;;;;;5.03;1.85;;;;;;;3.54;96.13;101744.44;10291774;28;20590;-87
2022/12/05 06:02:04;;;;;;;2.92;1.92;;;;;;;3.64;96.35;101751.03;10291444;28;20047;-88
2022/12/05 06:07:05;;;;;;;2.58;1.10;;;;;;;3.56;96.38;101747.13;10299101;28;20043;-88
2022/12/05 06:12:07;;;;;;;2.78;1.98;;;;;;;3.64;96.41;101750.16;10285541;28;20051;-87
2022/12/05 06:17:09;;;;;;;5.20;3.33;;;;;;;3.66;96.61;101743.38;10284607;28;20034;-87
2022/12/05 06:22:10;;;;;;;3.97;1.85;;;;;;;3.65;96.44;101751.97;10286422;28;20047;-87
2022/12/05 06:27:12;;;;;;;3.53;2.08;;;;;;;3.67;96.77;101746.06;10292701;28;20076;-85
2022/12/05 06:32:19;;;;;;;1.83;1.55;;;;;;;3.71;96.30;101747.16;10268068;28;20046;-85
2022/12/05 06:37:21;;;;;;;2.38;1.50;;;;;;;3.69;97.17;101744.47;10262446;28;20677;-86
2022/12/05 06:42:23;;;;;;;2.13;1.20;;;;;;;3.73;96.76;101745.53;10287304;28;20057;-86
2022/12/05 06:47:24;;;;;;;2.95;1.95;;;;;;;3.73;97.11;101745.53;10275956;28;20479;-85
2022/12/05 06:52:25;;;;;;;2.53;1.48;;;;;;;3.78;97.14;101754.47;10293850;28;20047;-86
2022/12/05 06:57:28;;;;;;;3.13;1.90;;;;;;;3.77;97.23;101746.59;10301382;28;20400;-85
2022/12/05 07:02:29;;;;;;;2.80;1.40;;;;;;;3.82;97.28;101747.78;10270057;28;20046;-86
2022/12/05 07:07:31;;;;;;;3.78;2.05;;;;;;;3.82;97.35;101747.78;10276414;28;20054;-86
2022/12/05 07:12:32;;;;;;;2.17;1.40;;;;;;;3.82;97.35;101747.78;10302123;28;20096;-87
2022/12/05 07:17:37;;;;;;;0.80;0.77;;;;;;;3.90;97.40;101746.53;10292641;28;20460;-85
2022/12/05 07:22:39;;;;;;;0.32;0.30;;;;;;;4.01;97.64;101750.66;10274420;28;20374;-83
2022/12/05 07:27:40;;;;;;;0.93;0.55;;;;;;;4.05;97.46;101750.06;10280025;28;20051;-86
2022/12/05 07:32:42;;;;;;;0.65;0.25;;;;;;;4.06;97.55;101738.84;10274132;28;20051;-85
2022/12/05 07:37:43;;;;;;;0.30;0.30;;;;;;;4.11;97.48;101743.44;10291481;28;20058;-85
2022/12/05 07:42:48;;;;;;;0.90;0.68;;;;;;;4.17;97.77;101736.00;10270415;28;20042;-85
2022/12/05 07:47:49;;;;;;;0.52;0.43;;;;;;;4.13;97.83;101731.44;10291862;28;20038;-86
2022/12/05 07:52:51;;;;;;;0.65;0.40;;;;;;;4.12;97.73;101730.56;10276358;28;20047;-84
2022/12/05 07:57:52;;;;;;;0.50;0.50;;;;;;;4.09;97.79;101729.50;10290020;28;20106;-86
2022/12/05 08:02:54;;;;;;;0.40;0.40;;;;;;;4.15;97.98;101730.72;10289952;28;20046;-85
2022/12/05 08:07:55;;;;;;;2.30;1.02;;;;;;;4.13;97.96;101740.13;10283862;28;20043;-85
2022/12/05 08:12:57;;;;;;;0.43;0.22;;;;;;;4.13;98.11;101728.84;10265436;28;20109;-86
2022/12/05 08:17:59;;;;;;;0.75;0.50;;;;;;;4.13;98.09;101741.81;10289607;28;20414;-86
2022/12/05 08:23:00;;;;;;;0.82;0.55;;;;;;;4.13;98.12;101737.53;10279478;28;20085;-87
2022/12/05 08:28:02;;;;;;;0.35;0.35;;;;;;;4.11;97.96;101743.44;10263610;28;21395;-86
2022/12/05 08:33:03;;;;;;;0.20;0.20;;;;;;;4.09;97.88;101743.34;10291819;28;20141;-86
2022/12/05 08:38:05;;;;;;;1.73;0.73;;;;;;;4.09;98.07;101739.88;10291635;28;20050;-86
2022/12/05 08:43:06;;;;;;;0.52;0.52;;;;;;;4.10;98.14;101746.81;10279470;28;20047;-87
2022/12/05 08:48:08;;;;;;;2.00;0.65;;;;;;;4.14;98.15;101751.38;10272692;28;20047;-87
2022/12/05 08:53:09;;;;;;;0.38;0.38;;;;;;;4.14;98.11;101754.84;10288302;28;20416;-87
2022/12/05 08:58:11;;;;;;;0.30;0.30;;;;;;;4.17;98.34;101759.34;10290668;28;20042;-86
2022/12/05 09:03:13;;;;;;;2.75;1.33;;;;;;;4.13;98.45;101762.53;10292124;28;20078;-86
2022/12/05 09:08:14;;;;;;;0.70;0.60;;;;;;;4.14;98.46;101751.38;10269711;28;20049;-87
2022/12/05 09:13:16;;;;;;;0.63;0.57;;;;;;;4.13;98.37;101762.53;10306741;28;20381;-87
2022/12/05 09:18:18;;;;;;;2.40;1.33;;;;;;;4.15;98.19;101759.25;10314449;28;20547;-86
2022/12/05 09:23:19;;;;;;;0.98;0.73;;;;;;;4.17;98.02;101769.72;10270215;28;20043;-87
2022/12/05 09:28:21;;;;;;;1.30;1.15;;;;;;;4.19;98.27;101761.22;10278135;28;20055;-87
2022/12/05 09:33:22;;;;;;;0.47;0.40;;;;;;;4.12;98.31;101768.56;10254426;28;20126;-87
2022/12/05 09:38:24;;;;;;;1.02;0.77;;;;;;;4.13;98.14;101763.47;10293064;28;20038;-87
2022/12/05 09:43:50;;;;;;;0.98;0.63;;;;;;;4.15;98.30;101758.38;10270537;28;20042;-86
2022/12/05 09:48:53;;;;;;;1.88;0.75;;;;;;;4.17;98.11;101764.53;10270069;28;20043;-86
2022/12/05 09:53:55;;;;;;;2.95;0.60;;;;;;;4.20;97.96;101767.28;10284141;28;20038;-87
2022/12/05 09:58:59;;;;;;;1.15;0.60;;;;;;;4.19;98.22;101763.81;10281875;28;20093;-86
2022/12/05 10:04:07;;;;;;;1.90;0.82;;;;;;;4.20;98.15;101765.63;10286438;28;20101;-86
2022/12/05 10:09:39;;;;;;;1.92;0.95;;;;;;;4.19;98.21;101763.81;10286686;28;20447;-85
2022/12/05 10:15:00;;;;;;;0.40;0.40;;;;;;;4.20;98.12;101751.75;10308315;28;20043;-86
2022/12/05 10:20:10;;;;;;;0.40;0.40;;;;;;;4.17;98.11;101756.75;10293690;28;20383;-86
2022/12/05 10:25:18;;;;;;;0.88;0.68;;;;;;;4.15;98.16;101750.59;10270921;28;20063;-86
2022/12/05 10:30:22;;;;;;;1.25;0.93;;;;;;;4.22;98.31;101750.16;10271474;28;20038;-85
2022/12/05 10:35:33;;;;;;;2.55;1.10;;;;;;;4.24;98.30;101751.13;10271213;28;20101;-86
2022/12/05 10:40:38;;;;;;;1.65;0.90;;;;;;;4.16;98.17;101745.50;10277145;28;20065;-85
2022/12/05 10:45:46;;;;;;;0.77;0.47;;;;;;;4.20;98.18;101743.97;10310069;28;20043;-86
2022/12/05 10:50:53;;;;;;;0.32;0.30;;;;;;;4.19;98.15;101737.00;10268568;28;20047;-86
2022/12/05 10:55:56;;;;;;;0.82;0.60;;;;;;;4.19;98.04;101743.06;10291923;28;20046;-86
2022/12/05 11:01:18;;;;;;;1.83;0.70;;;;;;;4.19;98.43;101742.19;10283526;28;20062;-86
2022/12/05 11:06:25;;;;;;;0.50;0.50;;;;;;;4.21;98.18;101737.97;10298247;28;20035;-86
2022/12/05 11:11:29;;;;;;;0.52;0.52;;;;;;;4.21;98.15;101733.69;10286088;28;20101;-86
2022/12/05 11:16:36;;;;;;;0.47;0.25;;;;;;;4.22;98.24;101732.00;10268639;28;20047;-85
2022/12/05 11:21:41;;;;;;;0.40;0.40;;;;;;;4.21;98.27;101730.22;10293374;28;20126;-85
2022/12/05 11:26:44;;;;;;;0.38;0.35;;;;;;;4.22;98.29;101722.50;10278586;28;20039;-85
2022/12/05 11:31:50;;;;;;;1.10;0.65;;;;;;;4.24;98.08;101720.00;10304042;28;20096;-85
2022/12/05 11:36:57;;;;;;;2.13;1.38;;;;;;;4.24;98.15;101713.13;10304532;28;20105;-85
2022/12/05 11:42:23;;;;;;;2.97;2.03;;;;;;;4.23;98.13;101707.84;10294932;28;20543;-86
2022/12/05 11:47:37;;;;;;;1.77;1.05;;;;;;;4.17;98.17;101707.50;10282381;28;20102;-86
2022/12/05 11:53:00;;;;;;;6.72;2.30;;;;;;;4.15;98.06;101711.72;10265533;28;20437;-87
2022/12/05 11:58:25;;;;;;;5.05;1.75;;;;;;;4.07;97.93;101717.34;10283757;28;20564;-86
2022/12/05 12:03:38;;;;;;;3.67;2.03;;;;;;;4.02;97.77;101710.09;10284390;28;20049;-87
2022/12/05 12:09:16;;;;;;;1.23;0.90;;;;;;;3.98;97.67;101705.50;10283327;28;20126;-86
2022/12/05 12:14:28;;;;;;;4.28;2.05;;;;;;;3.93;97.71;101707.84;10266495;28;20516;-86
2022/12/05 12:19:46;;;;;;;2.95;1.58;;;;;;;3.90;97.44;101705.06;10293051;28;20038;-86
2022/12/05 12:25:13;;;;;;;3.58;2.33;;;;;;;3.91;97.60;101703.41;10267628;28;20098;-85
2022/12/05 12:30:18;;;;;;;3.67;2.92;;;;;;;3.84;97.40;101702.13;10283652;28;20050;-85
2022/12/05 12:35:29;;;;;;;3.60;2.45;;;;;;;3.80;97.28;101701.06;10282819;28;20051;-86
2022/12/05 12:40:48;;;;;;;2.80;1.75;;;;;;;3.81;97.37;101702.81;10278151;28;20433;-86
2022/12/05 12:46:08;;;;;;;4.95;2.35;;;;;;;3.77;97.19;101689.59;10305419;28;20047;-86
2022/12/05 12:51:12;;;;;;;3.03;2.03;;;;;;;3.77;97.19;101689.59;10277044;28;20086;-87
2022/12/05 12:56:26;;;;;;;2.60;1.75;;;;;;;3.73;97.20;101696.31;10290830;28;20051;-86
2022/12/05 13:01:43;;;;;;;2.17;1.52;;;;;;;3.73;96.99;101693.72;10293928;28;20039;-86
2022/12/05 13:06:59;;;;;;;6.40;1.98;;;;;;;3.74;96.77;101687.75;10290563;28;20158;-86
2022/12/05 13:12:20;;;;;;;1.63;1.27;;;;;;;3.73;96.89;101698.91;10291465;28;20035;-86
2022/12/05 13:17:23;;;;;;;3.95;1.45;;;;;;;3.69;96.95;101700.44;10284625;28;20050;-85
2022/12/05 13:22:26;;;;;;;2.00;1.35;;;;;;;3.68;96.63;101693.44;10275730;28;20637;-85
2022/12/05 13:27:28;;;;;;;2.00;1.20;;;;;;;3.57;96.97;101696.19;10267236;28;20039;-85
2022/12/05 13:32:33;;;;;;;0.93;0.80;;;;;;;3.51;96.72;101702.81;10285088;28;20381;-85
2022/12/05 13:43:01;;;;;;;3.72;1.50;;;;;;;3.39;96.59;101693.41;10289953;28;20047;-86
2022/12/05 13:48:17;;;;;;;2.05;1.30;;;;;;;3.40;96.69;101702.97;10263018;28;20528;-86
2022/12/05 13:53:37;;;;;;;2.75;1.10;;;;;;;3.38;96.60;101684.75;10278287;28;20121;-86
2022/12/05 13:58:53;;;;;;;3.43;1.27;;;;;;;3.33;96.61;101691.31;10286439;28;20457;-86
2022/12/05 14:03:58;;;;;;;3.88;1.23;;;;;;;3.35;96.67;101700.09;10287322;28;20044;-86
2022/12/05 14:09:01;;;;;;;1.77;1.23;;;;;;;3.36;96.51;101696.69;10286589;28;20070;-87
2022/12/05 14:14:02;;;;;;;2.67;1.35;;;;;;;3.35;96.69;101702.69;10269816;28;20031;-86
2022/12/05 14:19:19;;;;;;;1.90;1.33;;;;;;;3.29;96.58;101700.59;10286047;28;20069;-86
2022/12/05 14:24:58;;;;;;;2.90;1.42;;;;;;;3.25;96.64;101703.81;10268424;28;20042;-85
2022/12/05 14:30:09;;;;;;;6.35;2.38;;;;;;;3.25;96.54;101696.03;10272266;28;20081;-85
2022/12/05 14:35:18;;;;;;;3.70;1.40;;;;;;;3.22;96.53;101702.72;10281436;28;20507;-86
2022/12/05 14:40:33;;;;;;;2.95;1.63;;;;;;;3.15;96.45;101696.25;10269037;28;20793;-86
2022/12/05 14:45:40;;;;;;;4.65;2.25;;;;;;;3.09;96.57;101701.97;10284704;28;20628;-86
2022/12/05 14:50:47;;;;;;;2.90;1.45;;;;;;;3.10;96.50;101702.88;10297249;28;20045;-86
2022/12/05 14:56:04;;;;;;;2.33;1.77;;;;;;;3.07;96.46;101713.91;10285726;28;20452;-86
2022/12/05 15:01:13;;;;;;;4.90;3.17;;;;;;;3.06;96.57;101711.22;10285468;28;20049;-86
2022/12/05 15:06:16;;;;;;;4.72;2.85;;;;;;;3.05;96.53;101719.78;10284520;28;20039;-85
2022/12/05 15:11:28;;;;;;;1.58;1.10;;;;;;;3.08;96.52;101712.19;10279359;28;20210;-86
2022/12/05 15:16:32;;;;;;;2.85;1.25;;;;;;;3.05;96.75;101722.38;10267879;28;20047;-86
2022/12/05 15:21:48;;;;;;;2.17;1.45;;;;;;;3.02;96.51;101710.16;10284353;28;20048;-85
2022/12/05 15:26:52;;;;;;;3.65;2.20;;;;;;;3.07;96.71;101718.19;10287512;28;20043;-86
2022/12/05 15:31:58;;;;;;;1.90;1.25;;;;;;;3.01;96.73;101723.88;10291668;28;20058;-86
2022/12/05 15:37:44;;;;;;;2.13;1.38;;;;;;;3.01;96.72;101732.53;10269769;28;20038;-87
2022/12/05 15:42:50;;;;;;;0.43;0.43;;;;;;;2.97;96.77;101727.06;10287375;28;20547;-86
2022/12/05 15:47:56;;;;;;;2.13;1.30;;;;;;;2.90;96.64;101730.97;10275778;28;20082;-87
2022/12/05 15:53:12;;;;;;;0.52;0.52;;;;;;;2.94;96.73;101739.81;10277960;28;20038;-86
2022/12/05 15:58:45;;;;;;;1.63;1.30;;;;;;;2.88;96.76;101732.53;10261272;28;20047;-86
2022/12/05 16:04:00;;;;;;;1.05;0.88;;;;;;;2.83;96.64;101733.97;10279324;28;20085;-86
2022/12/05 16:09:08;;;;;;;0.98;0.80;;;;;;;2.77;96.77;101738.75;10276628;28;20756;-86
2022/12/05 16:14:12;;;;;;;;;;;;;;;2.73;96.62;101741.94;10283796;28;20039;-86
2022/12/05 16:19:31;;;;;;;1.23;1.13;;;;;;;2.68;96.53;101738.16;10268992;28;19918;-86
2022/12/05 16:24:40;;;;;;;1.15;1.05;;;;;;;2.62;96.63;101734.38;10278203;28;20097;-87
2022/12/05 16:29:43;;;;;;;1.77;1.27;;;;;;;2.58;96.67;101742.75;10258931;28;20497;-86
2022/12/05 16:34:45;;;;;;;1.63;0.95;;;;;;;2.55;96.56;101745.13;10269435;28;20476;-86
2022/12/05 16:39:46;;;;;;;2.28;0.93;;;;;;;2.56;96.67;101749.50;10277924;28;20636;-87
2022/12/05 16:45:02;;;;;;;1.88;1.23;;;;;;;2.53;96.69;101738.94;10271692;28;20050;-87
2022/12/05 16:50:21;;;;;;;2.15;1.38;;;;;;;2.46;96.74;101747.09;10266302;28;20484;-87
2022/12/05 16:55:22;;;;;;;1.35;0.98;;;;;;;2.43;96.61;101752.06;10275335;28;20051;-88
2022/12/05 17:00:24;;;;;;;1.27;1.17;;;;;;;2.44;96.48;101754.75;10266798;28;20054;-86
2022/12/05 17:05:25;;;;;;;4.70;1.85;;;;;;;2.46;96.70;101752.25;10261301;28;20035;-87
2022/12/05 17:10:27;;;;;;;1.95;1.23;;;;;;;2.46;96.95;101749.69;10241197;28;20054;-88
2022/12/05 17:15:29;;;;;;;2.17;0.98;;;;;;;2.44;96.81;101739.25;10281682;28;20038;-87
2022/12/05 17:20:30;;;;;;;1.10;0.63;;;;;;;2.46;96.59;101749.69;10289482;28;20093;-85
2022/12/05 17:25:35;;;;;;;2.30;1.77;;;;;;;2.46;96.50;101747.09;10292770;28;20047;-86
2022/12/05 17:30:38;;;;;;;1.58;1.30;;;;;;;2.39;96.54;101758.75;10286967;28;20043;-86
2022/12/05 17:35:40;;;;;;;2.30;1.27;;;;;;;2.36;96.60;101765.38;10270921;28;20035;-86
2022/12/05 17:40:42;;;;;;;2.83;1.88;;;;;;;2.33;96.51;101760.94;10269781;28;20042;-87
2022/12/05 17:45:43;;;;;;;0.85;0.73;;;;;;;2.26;96.25;101767.34;10286626;28;20042;-85
2022/12/05 17:50:47;;;;;;;1.15;0.65;;;;;;;2.28;96.53;101765.78;10288834;28;20039;-83
2022/12/05 17:55:49;;;;;;;6.00;4.57;;;;;;;2.23;96.13;101759.41;10291466;28;20043;-86
2022/12/05 18:00:50;;;;;;;2.63;1.60;;;;;;;2.24;96.37;101770.66;10275654;28;20042;-84
2022/12/05 18:05:52;;;;;;;4.95;2.10;;;;;;;2.21;96.27;101776.50;10290673;28;20050;-84
2022/12/05 18:10:54;;;;;;;1.17;1.05;;;;;;;2.20;96.41;101779.00;10273440;28;20042;-85
2022/12/05 18:15:56;;;;;;;1.75;1.13;;;;;;;2.20;96.37;101784.16;10292114;28;20065;-85
2022/12/05 18:21:10;;;;;;;1.73;1.23;;;;;;;2.20;96.76;101790.22;10268701;28;20404;-85
2022/12/05 18:26:11;;;;;;;2.10;1.13;;;;;;;2.23;96.44;101795.59;10288418;28;20039;-84
2022/12/05 18:31:15;;;;;;;1.63;1.40;;;;;;;2.20;96.26;101782.47;10269002;28;20058;-84
2022/12/05 18:36:19;;;;;;;3.47;1.55;;;;;;;2.20;96.48;101779.88;10286045;28;20046;-85
2022/12/05 18:41:22;;;;;;;2.55;1.92;;;;;;;2.19;96.42;101780.69;10280172;28;20109;-85
2022/12/05 18:46:24;;;;;;;4.13;1.95;;;;;;;2.20;96.49;101785.03;10285357;28;20427;-87
2022/12/05 18:51:26;;;;;;;2.47;1.85;;;;;;;2.20;96.56;101785.03;10292608;28;20121;-86
2022/12/05 18:56:30;;;;;;;1.02;0.93;;;;;;;2.22;96.64;101792.91;10286034;28;20035;-86
2022/12/05 19:01:36;;;;;;;6.45;2.25;;;;;;;2.19;96.57;101777.19;10287005;28;20071;-86
2022/12/05 19:06:40;;;;;;;1.38;1.15;;;;;;;2.21;96.55;101784.25;10285978;28;20042;-86
2022/12/05 19:11:44;;;;;;;3.28;1.75;;;;;;;2.14;96.73;101794.97;10285996;28;20047;-86
2022/12/05 19:16:50;;;;;;;1.65;1.10;;;;;;;2.15;96.81;101796.78;10268926;28;20139;-86
2022/12/05 19:21:58;;;;;;;1.50;1.08;;;;;;;2.20;96.90;101795.38;10286328;28;20038;-86
2022/12/05 19:27:00;;;;;;;1.42;0.93;;;;;;;2.19;96.90;101803.03;10285543;28;20038;-87
2022/12/05 19:32:01;;;;;;;1.40;0.88;;;;;;;2.10;96.79;101804.22;10283223;28;20105;-86
2022/12/05 19:37:03;;;;;;;1.75;1.10;;;;;;;2.11;96.96;101807.69;10283500;28;20501;-86
2022/12/05 19:42:05;;;;;;;1.60;1.25;;;;;;;2.15;96.87;101796.78;10284266;28;20046;-87
2022/12/05 19:47:07;;;;;;;1.08;0.73;;;;;;;2.19;96.97;101795.28;10281345;28;20571;-87
2022/12/05 19:52:09;;;;;;;2.35;1.90;;;;;;;2.23;96.93;101800.75;10277653;28;20533;-87
2022/12/05 19:57:11;;;;;;;6.00;2.80;;;;;;;2.23;97.01;101795.59;10283286;28;20444;-87
2022/12/05 20:02:12;;;;;;;1.77;1.33;;;;;;;2.23;96.92;101798.16;10259566;28;20114;-86
2022/12/05 20:07:14;;;;;;;3.20;1.95;;;;;;;2.24;96.90;101797.38;10271379;28;20210;-86
2022/12/05 20:12:16;;;;;;;2.95;1.77;;;;;;;2.25;97.06;101793.09;10283673;28;20122;-87
2022/12/05 20:17:19;;;;;;;2.30;1.10;;;;;;;2.22;96.94;101790.31;10282448;28;20047;-87
2022/12/05 20:22:21;;;;;;;2.35;1.42;;;;;;;2.24;96.79;101788.75;10269379;28;20089;-86
2022/12/05 20:27:23;;;;;;;3.45;1.63;;;;;;;2.23;97.04;101787.84;10282298;28;20046;-86
2022/12/05 20:32:24;;;;;;;2.60;1.83;;;;;;;2.16;97.33;101785.63;10276679;28;20603;-85
2022/12/05 20:37:25;;;;;;;2.70;1.80;;;;;;;2.08;97.03;101785.13;10283860;28;20109;-86
2022/12/05 20:42:31;;;;;;;2.35;1.40;;;;;;;2.07;97.27;101779.84;10284018;28;20050;-86
2022/12/05 20:47:33;;;;;;;3.25;1.90;;;;;;;2.12;97.12;101775.91;10299285;28;20063;-86
2022/12/05 20:52:34;;;;;;;1.13;0.90;;;;;;;2.10;97.15;101768.03;10299686;28;20051;-86
2022/12/05 20:57:36;;;;;;;2.13;1.50;;;;;;;2.09;97.40;101786.03;10301320;28;20109;-86
2022/12/05 21:02:37;;;;;;;1.45;1.33;;;;;;;2.16;97.39;101782.16;10307561;28;20038;-85
2022/12/05 21:07:39;;;;;;;3.05;1.92;;;;;;;2.06;97.69;101776.38;10291746;28;20047;-86
2022/12/05 21:12:40;;;;;;;3.22;2.08;;;;;;;2.06;97.52;101775.50;10291203;28;20047;-86
2022/12/05 21:17:42;;;;;;;2.30;1.58;;;;;;;2.09;97.53;101776.56;10290787;28;20046;-85
2022/12/05 21:22:43;;;;;;;4.18;2.55;;;;;;;2.15;97.62;101773.53;10289571;28;20097;-85
2022/12/05 21:27:44;;;;;;;2.22;1.95;;;;;;;2.09;97.74;101771.41;10286388;28;20475;-86
2022/12/05 21:32:46;;;;;;;3.75;1.90;;;;;;;2.08;97.63;101774.78;10292386;28;20050;-87
2022/12/05 21:37:49;;;;;;;1.52;1.33;;;;;;;2.12;97.92;101771.63;10289540;28;20043;-87
2022/12/05 21:42:51;;;;;;;1.08;0.73;;;;;;;2.16;98.00;101764.94;10297303;28;20047;-87
2022/12/05 21:47:52;;;;;;;4.07;2.63;;;;;;;2.21;98.17;101766.19;10296118;28;20058;-86
2022/12/05 21:52:55;;;;;;;1.55;1.27;;;;;;;2.26;98.22;101769.94;10289013;28;20129;-86
2022/12/05 21:57:56;;;;;;;2.53;1.63;;;;;;;2.30;98.38;101759.03;10289879;28;20101;-86
2022/12/05 22:02:57;;;;;;;1.15;0.90;;;;;;;2.36;98.37;101761.13;10292171;28;20097;-86
2022/12/05 22:07:59;;;;;;;1.52;1.10;;;;;;;2.36;98.32;101761.13;10271114;28;20057;-86
2022/12/05 22:13:06;;;;;;;1.55;1.38;;;;;;;2.40;98.44;101760.53;10295612;28;20445;-86
2022/12/05 22:18:08;;;;;;;1.08;0.98;;;;;;;2.45;98.39;101758.25;10293473;28;20046;-87
2022/12/05 22:23:09;;;;;;;2.83;1.77;;;;;;;2.53;98.29;101754.47;10269975;28;20039;-87
2022/12/05 22:28:17;;;;;;;2.28;1.25;;;;;;;2.59;98.50;101749.69;10278026;28;20121;-87
2022/12/05 22:33:18;;;;;;;5.57;2.17;;;;;;;2.68;98.49;101751.97;10300062;28;20417;-88
2022/12/05 22:38:20;;;;;;;0.60;0.60;;;;;;;2.76;98.63;101745.63;10296805;28;20047;-86
2022/12/05 22:43:22;;;;;;;2.45;1.45;;;;;;;2.88;98.55;101744.59;10288055;28;20042;-87
2022/12/05 22:48:25;;;;;;;1.33;1.00;;;;;;;2.98;98.70;101745.28;10279479;28;20062;-87
2022/12/05 22:53:27;;;;;;;0.75;0.65;;;;;;;3.07;98.83;101744.97;10280753;28;20051;-87
2022/12/05 22:58:28;;;;;;;3.88;1.77;;;;;;;3.11;98.79;101738.31;10302107;28;20049;-86
2022/12/05 23:03:30;;;;;;;0.70;0.70;;;;;;;3.14;98.83;101735.91;10294513;28;20042;-86
2022/12/05 23:08:32;;;;;;;3.25;1.33;;;;;;;3.19;98.97;101732.78;10285010;28;20543;-86
2022/12/05 23:13:38;;;;;;;1.23;0.90;;;;;;;3.21;99.02;101732.00;10286265;28;20043;-87
2022/12/05 23:18:46;;;;;;;0.10;0.10;;;;;;;3.22;99.15;101724.31;10286100;28;20039;-86
2022/12/05 23:23:50;;;;;;;0.43;0.43;;;;;;;3.23;98.95;101723.53;10284086;28;20055;-86
2022/12/05 23:28:52;;;;;;;0.60;0.60;;;;;;;3.22;99.07;101729.50;10284476;28;20046;-86
2022/12/05 23:33:53;;;;;;;0.43;0.43;;;;;;;3.24;99.15;101719.22;10284723;28;20535;-87
2022/12/05 23:39:03;;;;;;;0.10;0.10;;;;;;;3.23;99.12;101723.53;10284961;28;20038;-87
2022/12/05 23:44:04;;;;;;;0.85;0.85;;;;;;;3.23;98.99;101720.03;10284686;28;20089;-88
2022/12/05 23:49:06;;;;;;;0.40;0.40;;;;;;;3.22;99.20;101716.56;10287750;28;20097;-87
2022/12/05 23:54:09;;;;;;;1.02;0.77;;;;;;;3.25;99.28;101716.75;10286563;28;20134;-87
2022/12/05 23:59:11;;;;;;;2.13;0.60;;;;;;;3.23;99.21;101726.13;10283127;28;20039;-88
